Time;durP1;ratioP1;P1;durP2;ratioP2;P2;SDS_P1;SDS_P2;PMS_P1;PMS_P2;Temp;Humidity;BMP_temperature;BMP_pressure;BME280_temperature;BME280_humidity;BME280_pressure;Samples;Min_cycle;Max_cycle;Signal;HPM_P1;HPM_P2
2021/08/11 00:01:49;;;;;;;16.77;8.00;;;;;;;;;;4975114;28;20108;-66
2021/08/11 00:04:15;;;;;;;24.33;9.15;;;;;;;;;;4992021;28;20041;-66
2021/08/11 00:06:40;;;;;;;18.95;8.07;;;;;;;;;;4977441;28;20041;-66
2021/08/11 00:09:06;;;;;;;22.70;9.23;;;;;;;;;;4976721;28;20077;-65
2021/08/11 00:11:34;;;;;;;17.85;9.63;;;;;;;;;;4978252;28;20519;-65
2021/08/11 00:14:02;;;;;;;23.23;9.68;;;;;;;;;;4977796;28;20034;-66
2021/08/11 00:16:27;;;;;;;21.05;9.25;;;;;;;;;;4974112;28;20430;-66
2021/08/11 00:18:54;;;;;;;23.95;9.18;;;;;;;;;;4977566;28;20048;-65
2021/08/11 00:21:21;;;;;;;22.45;9.25;;;;;;;;;;4976906;28;20033;-66
2021/08/11 00:23:47;;;;;;;21.65;9.13;;;;;;;;;;4977819;28;20048;-65
2021/08/11 00:26:12;;;;;;;24.23;9.90;;;;;;;;;;4972832;28;20029;-66
2021/08/11 00:28:38;;;;;;;16.92;8.32;;;;;;;;;;4976428;28;20632;-66
2021/08/11 00:31:06;;;;;;;15.60;8.32;;;;;;;;;;4975829;28;20034;-66
2021/08/11 00:33:32;;;;;;;18.75;8.43;;;;;;;;;;4983451;28;20061;-66
2021/08/11 00:35:57;;;;;;;14.60;8.40;;;;;;;;;;4979431;28;20120;-66
2021/08/11 00:38:23;;;;;;;23.52;8.30;;;;;;;;;;4997905;28;20725;-66
2021/08/11 00:40:48;;;;;;;20.00;8.82;;;;;;;;;;4997848;28;20109;-66
2021/08/11 00:43:14;;;;;;;18.00;8.65;;;;;;;;;;4997632;28;20034;-66
2021/08/11 00:45:40;;;;;;;17.58;8.90;;;;;;;;;;5000396;28;20955;-65
2021/08/11 00:48:10;;;;;;;20.50;8.75;;;;;;;;;;4990252;28;20030;-65
2021/08/11 00:50:38;;;;;;;14.77;8.27;;;;;;;;;;5000343;28;20511;-66
2021/08/11 00:53:05;;;;;;;17.95;8.43;;;;;;;;;;5001354;28;20160;-66
2021/08/11 00:55:33;;;;;;;18.25;8.85;;;;;;;;;;4999499;28;20037;-66
2021/08/11 00:57:59;;;;;;;16.77;8.05;;;;;;;;;;5002064;28;20040;-66
2021/08/11 01:00:24;;;;;;;15.98;8.60;;;;;;;;;;5001615;28;20025;-65
2021/08/11 01:02:50;;;;;;;19.25;7.95;;;;;;;;;;4998229;28;20052;-66
2021/08/11 01:05:18;;;;;;;21.55;8.70;;;;;;;;;;4983241;28;20641;-65
2021/08/11 01:07:44;;;;;;;18.73;9.70;;;;;;;;;;5000419;28;20022;-65
2021/08/11 01:10:10;;;;;;;18.42;8.65;;;;;;;;;;4998750;28;20037;-65
2021/08/11 01:12:36;;;;;;;14.98;8.35;;;;;;;;;;5001643;28;20942;-65
2021/08/11 01:15:03;;;;;;;18.52;9.63;;;;;;;;;;5001006;28;20062;-65
2021/08/11 01:17:30;;;;;;;17.08;8.73;;;;;;;;;;4999459;28;20056;-65
2021/08/11 01:19:57;;;;;;;18.35;9.15;;;;;;;;;;5001148;28;20046;-65
2021/08/11 01:22:23;;;;;;;16.48;8.63;;;;;;;;;;5000211;28;20026;-66
2021/08/11 01:24:57;;;;;;;26.35;10.65;;;;;;;;;;4980555;28;21914;-66
2021/08/11 01:27:23;;;;;;;;;;;;;;;;;;4999376;28;20029;-66
2021/08/11 01:29:54;;;;;;;26.40;9.25;;;;;;;;;;4998592;28;20331;-66
2021/08/11 01:32:22;;;;;;;28.67;9.20;;;;;;;;;;5001144;28;22012;-66
2021/08/11 01:34:51;;;;;;;23.05;9.05;;;;;;;;;;4982441;28;20038;-65
2021/08/11 01:37:18;;;;;;;28.88;9.60;;;;;;;;;;5000128;28;20030;-65
2021/08/11 01:39:48;;;;;;;25.92;9.88;;;;;;;;;;4999881;28;20022;-65
2021/08/11 01:42:23;;;;;;;30.75;10.07;;;;;;;;;;5000213;28;20022;-68
2021/08/11 01:44:58;;;;;;;20.10;8.85;;;;;;;;;;4982491;28;20033;-65
2021/08/11 01:47:23;;;;;;;;;;;;;;;;;;4999789;28;21643;-65
2021/08/11 01:49:52;;;;;;;19.27;9.52;;;;;;;;;;4981589;28;20423;-66
2021/08/11 01:52:18;;;;;;;25.10;10.10;;;;;;;;;;4998941;28;20032;-65
2021/08/11 01:54:47;;;;;;;20.02;8.80;;;;;;;;;;4997953;28;20068;-65
2021/08/11 01:57:14;;;;;;;28.42;10.02;;;;;;;;;;4998527;28;20047;-66
2021/08/11 01:59:40;;;;;;;24.05;10.05;;;;;;;;;;4999658;28;20025;-65
2021/08/11 02:02:06;;;;;;;24.70;9.77;;;;;;;;;;4997104;28;20036;-65
2021/08/11 02:04:34;;;;;;;32.15;10.90;;;;;;;;;;4999059;28;20026;-65
2021/08/11 02:07:00;;;;;;;22.75;10.27;;;;;;;;;;4981594;28;20076;-65
2021/08/11 02:09:29;;;;;;;20.17;9.50;;;;;;;;;;4999253;28;20034;-64
2021/08/11 02:11:55;;;;;;;26.83;10.30;;;;;;;;;;5001365;28;20065;-65
2021/08/11 02:14:21;;;;;;;27.90;10.00;;;;;;;;;;4982450;28;20144;-64
2021/08/11 02:16:49;;;;;;;19.10;9.70;;;;;;;;;;4986422;28;20056;-65
2021/08/11 02:19:14;;;;;;;14.50;8.60;;;;;;;;;;4985497;28;21903;-65
2021/08/11 02:21:40;;;;;;;23.25;10.13;;;;;;;;;;4996218;28;20033;-65
2021/08/11 02:24:07;;;;;;;18.60;8.93;;;;;;;;;;4996060;28;20033;-65
2021/08/11 02:26:35;;;;;;;30.67;9.98;;;;;;;;;;4998593;28;20021;-64
2021/08/11 02:29:07;;;;;;;21.67;9.15;;;;;;;;;;4997762;28;20042;-64
2021/08/11 02:31:51;;;;;;;19.75;9.55;;;;;;;;;;4997614;28;20033;-64
2021/08/11 02:34:31;;;;;;;23.80;9.47;;;;;;;;;;4978646;28;20053;-64
2021/08/11 02:36:57;;;;;;;15.00;8.20;;;;;;;;;;4997235;28;20316;-64
2021/08/11 02:39:32;;;;;;;17.20;8.98;;;;;;;;;;4995560;28;20029;-64
2021/08/11 02:42:00;;;;;;;21.88;10.32;;;;;;;;;;4997312;28;20052;-65
2021/08/11 02:44:44;;;;;;;19.95;9.35;;;;;;;;;;4996318;28;20038;-63
2021/08/11 02:47:12;;;;;;;16.35;9.00;;;;;;;;;;4977655;28;20055;-64
2021/08/11 02:49:38;;;;;;;19.55;9.65;;;;;;;;;;4997482;28;20520;-64
2021/08/11 02:52:05;;;;;;;21.63;10.55;;;;;;;;;;4995802;28;20071;-65
2021/08/11 02:54:33;;;;;;;17.98;9.18;;;;;;;;;;4979159;28;20022;-64
2021/08/11 03:00:11;;;;;;;15.63;8.30;;;;;;;;;;4998156;28;20057;-63
2021/08/11 03:02:39;;;;;;;22.42;8.73;;;;;;;;;;4978920;28;20146;-64
2021/08/11 03:05:05;;;;;;;20.02;8.40;;;;;;;;;;4999129;28;21038;-64
2021/08/11 03:07:30;;;;;;;21.33;8.10;;;;;;;;;;4994045;28;20489;-64
2021/08/11 03:09:56;;;;;;;18.15;8.95;;;;;;;;;;4981527;28;20092;-64
2021/08/11 03:12:21;;;;;;;25.58;8.40;;;;;;;;;;4963277;28;20041;-64
2021/08/11 03:14:48;;;;;;;21.38;8.98;;;;;;;;;;4997023;28;20476;-63
2021/08/11 03:17:15;;;;;;;22.50;9.02;;;;;;;;;;4997790;28;20388;-64
2021/08/11 03:19:41;;;;;;;20.70;8.70;;;;;;;;;;4979980;28;20063;-64
2021/08/11 03:22:08;;;;;;;17.77;8.57;;;;;;;;;;4979352;28;20029;-64
2021/08/11 03:24:35;;;;;;;18.35;8.15;;;;;;;;;;4980390;28;20045;-64
2021/08/11 03:27:01;;;;;;;27.20;9.35;;;;;;;;;;4981688;28;20057;-63
2021/08/11 03:29:26;;;;;;;24.38;8.38;;;;;;;;;;4996899;28;20033;-63
2021/08/11 03:31:52;;;;;;;19.20;8.30;;;;;;;;;;4979406;28;20038;-64
2021/08/11 03:34:17;;;;;;;18.70;8.88;;;;;;;;;;4994826;28;20121;-63
2021/08/11 03:36:43;;;;;;;17.90;9.05;;;;;;;;;;4959990;28;20037;-64
2021/08/11 03:39:08;;;;;;;15.70;8.52;;;;;;;;;;4975807;28;20537;-64
2021/08/11 03:41:34;;;;;;;19.52;8.95;;;;;;;;;;4979513;28;20727;-64
2021/08/11 03:43:59;;;;;;;14.93;8.20;;;;;;;;;;4978467;28;20109;-65
2021/08/11 03:46:30;;;;;;;15.75;8.80;;;;;;;;;;4993823;28;20034;-65
2021/08/11 03:48:55;;;;;;;18.20;8.27;;;;;;;;;;4980838;28;20481;-64
2021/08/11 03:51:21;;;;;;;21.73;8.77;;;;;;;;;;4978739;28;20052;-65
2021/08/11 03:53:46;;;;;;;18.50;8.82;;;;;;;;;;4980768;28;20062;-64
2021/08/11 03:56:12;;;;;;;23.55;9.40;;;;;;;;;;4977572;28;20053;-65
2021/08/11 03:58:37;;;;;;;19.02;8.85;;;;;;;;;;4977161;28;20050;-64
2021/08/11 04:01:03;;;;;;;20.98;9.30;;;;;;;;;;4982378;28;20038;-63
2021/08/11 04:03:28;;;;;;;19.92;8.65;;;;;;;;;;4978306;28;20624;-65
2021/08/11 04:05:54;;;;;;;16.48;8.40;;;;;;;;;;4977152;28;20030;-63
2021/08/11 04:08:19;;;;;;;26.98;9.43;;;;;;;;;;4991604;28;20540;-65
2021/08/11 04:10:48;;;;;;;24.80;10.40;;;;;;;;;;4989627;28;20432;-64
2021/08/11 04:13:18;;;;;;;23.70;9.63;;;;;;;;;;4978535;28;20037;-64
2021/08/11 04:15:46;;;;;;;27.83;10.43;;;;;;;;;;4979300;28;20185;-63
2021/08/11 04:18:12;;;;;;;17.63;9.65;;;;;;;;;;4975793;28;20373;-66
2021/08/11 04:20:38;;;;;;;22.30;9.57;;;;;;;;;;4981847;28;20166;-64
2021/08/11 04:23:04;;;;;;;18.05;8.65;;;;;;;;;;4980585;28;20068;-64
2021/08/11 04:25:39;;;;;;;16.27;8.85;;;;;;;;;;4981263;28;20038;-65
2021/08/11 04:28:04;;;;;;;30.15;9.30;;;;;;;;;;4980617;28;20058;-64
2021/08/11 04:30:32;;;;;;;20.00;9.02;;;;;;;;;;4997303;28;20130;-66
2021/08/11 04:32:58;;;;;;;24.05;9.25;;;;;;;;;;4997962;28;20139;-65
2021/08/11 04:35:27;;;;;;;19.13;8.48;;;;;;;;;;5001423;28;20037;-64
2021/08/11 04:37:54;;;;;;;18.67;8.38;;;;;;;;;;4997976;28;20041;-64
2021/08/11 04:40:20;;;;;;;19.63;8.95;;;;;;;;;;4984456;28;20046;-65
2021/08/11 04:42:48;;;;;;;22.00;9.32;;;;;;;;;;5001052;28;20021;-64
2021/08/11 04:45:14;;;;;;;19.90;9.63;;;;;;;;;;5001064;28;20022;-65
2021/08/11 04:47:41;;;;;;;28.85;8.82;;;;;;;;;;5001470;28;20052;-65
2021/08/11 04:50:07;;;;;;;14.88;7.95;;;;;;;;;;5001228;28;20053;-65
2021/08/11 04:52:33;;;;;;;17.40;8.77;;;;;;;;;;4997739;28;20036;-64
2021/08/11 04:55:01;;;;;;;15.25;7.68;;;;;;;;;;5002064;28;20069;-64
2021/08/11 04:57:29;;;;;;;16.58;8.45;;;;;;;;;;4999121;28;21772;-64
2021/08/11 04:59:54;;;;;;;19.65;7.75;;;;;;;;;;4983743;28;20037;-65
2021/08/11 05:02:20;;;;;;;16.10;8.23;;;;;;;;;;5002180;28;20043;-64
2021/08/11 05:04:46;;;;;;;13.27;8.13;;;;;;;;;;5002842;28;20029;-65
2021/08/11 05:07:12;;;;;;;20.33;8.15;;;;;;;;;;4970481;28;20034;-63
2021/08/11 05:09:42;;;;;;;13.07;7.25;;;;;;;;;;4996475;28;20033;-63
2021/08/11 05:12:08;;;;;;;13.60;7.30;;;;;;;;;;4983990;28;20033;-64
2021/08/11 05:14:36;;;;;;;15.30;6.53;;;;;;;;;;4999582;28;20131;-63
2021/08/11 05:17:04;;;;;;;14.27;6.72;;;;;;;;;;4979843;28;20043;-64
2021/08/11 05:19:35;;;;;;;10.88;6.40;;;;;;;;;;4997576;28;20128;-65
2021/08/11 05:22:03;;;;;;;14.80;7.38;;;;;;;;;;4981174;28;20044;-65
2021/08/11 05:24:31;;;;;;;12.18;6.45;;;;;;;;;;4997470;28;20948;-65
2021/08/11 05:26:57;;;;;;;16.38;6.55;;;;;;;;;;4983055;28;20116;-66
2021/08/11 05:29:23;;;;;;;16.27;6.65;;;;;;;;;;4999984;28;20030;-66
2021/08/11 05:31:49;;;;;;;15.30;6.32;;;;;;;;;;5001196;28;20113;-66
2021/08/11 05:34:14;;;;;;;13.45;6.70;;;;;;;;;;4999617;28;20049;-67
2021/08/11 05:36:40;;;;;;;12.07;5.20;;;;;;;;;;5000168;28;20030;-66
2021/08/11 05:39:05;;;;;;;12.65;5.40;;;;;;;;;;5000101;28;20121;-67
2021/08/11 05:41:31;;;;;;;11.95;5.03;;;;;;;;;;4998364;28;20115;-67
2021/08/11 05:43:56;;;;;;;13.75;5.63;;;;;;;;;;4999312;28;20088;-66
2021/08/11 05:46:22;;;;;;;10.20;6.28;;;;;;;;;;5000307;28;20029;-67
2021/08/11 05:48:47;;;;;;;13.82;5.95;;;;;;;;;;4999849;28;20032;-67
2021/08/11 05:51:13;;;;;;;12.70;5.38;;;;;;;;;;4999575;28;20107;-64
2021/08/11 05:53:42;;;;;;;8.82;4.97;;;;;;;;;;5000247;28;20121;-64
2021/08/11 05:56:07;;;;;;;15.40;5.55;;;;;;;;;;4996975;28;20049;-66
2021/08/11 05:58:33;;;;;;;15.07;5.50;;;;;;;;;;5000276;28;20668;-66
2021/08/11 06:01:01;;;;;;;12.55;5.90;;;;;;;;;;4998870;28;20038;-67
2021/08/11 06:03:26;;;;;;;12.93;6.55;;;;;;;;;;4982266;28;20384;-66
2021/08/11 06:05:52;;;;;;;12.88;6.30;;;;;;;;;;4982513;28;20041;-65
2021/08/11 06:08:17;;;;;;;12.07;5.50;;;;;;;;;;4998223;28;20032;-66
2021/08/11 06:10:43;;;;;;;8.05;5.82;;;;;;;;;;4966485;28;20116;-65
2021/08/11 06:13:08;;;;;;;14.75;6.07;;;;;;;;;;4997146;28;20655;-66
2021/08/11 06:15:34;;;;;;;11.38;5.70;;;;;;;;;;4981933;28;20152;-66
2021/08/11 06:17:59;;;;;;;14.00;6.15;;;;;;;;;;4995368;28;20034;-67
2021/08/11 06:20:25;;;;;;;9.88;5.28;;;;;;;;;;4997145;28;20037;-66
2021/08/11 06:22:51;;;;;;;9.43;5.53;;;;;;;;;;4998891;28;20029;-66
2021/08/11 06:25:18;;;;;;;9.80;5.57;;;;;;;;;;4999770;28;20025;-66
2021/08/11 06:27:43;;;;;;;13.25;5.57;;;;;;;;;;4997958;28;20465;-65
2021/08/11 06:30:10;;;;;;;8.07;5.05;;;;;;;;;;5001070;28;20036;-66
2021/08/11 06:32:36;;;;;;;9.60;5.45;;;;;;;;;;4998829;28;20091;-67
2021/08/11 06:35:02;;;;;;;10.98;4.57;;;;;;;;;;4995047;28;20050;-67
2021/08/11 06:37:28;;;;;;;10.93;5.10;;;;;;;;;;4980828;28;20030;-66
2021/08/11 06:39:54;;;;;;;8.30;5.03;;;;;;;;;;4978529;28;20033;-67
2021/08/11 06:42:19;;;;;;;7.55;4.57;;;;;;;;;;4966654;28;20058;-66
2021/08/11 06:44:45;;;;;;;9.68;4.53;;;;;;;;;;4980293;28;20030;-65
2021/08/11 06:47:11;;;;;;;7.85;4.25;;;;;;;;;;4979700;28;20041;-66
2021/08/11 06:49:40;;;;;;;8.70;4.20;;;;;;;;;;4995128;28;20077;-65
2021/08/11 06:52:08;;;;;;;8.85;3.72;;;;;;;;;;4977184;28;20053;-66
2021/08/11 06:54:38;;;;;;;7.43;4.03;;;;;;;;;;4992307;28;20037;-66
2021/08/11 06:57:04;;;;;;;6.80;4.07;;;;;;;;;;4976614;28;20022;-66
2021/08/11 06:59:30;;;;;;;6.68;4.28;;;;;;;;;;4979005;28;20837;-66
2021/08/11 07:01:56;;;;;;;11.80;4.30;;;;;;;;;;4976747;28;20128;-67
2021/08/11 07:04:22;;;;;;;8.10;4.25;;;;;;;;;;4979604;28;20886;-67
2021/08/11 07:06:48;;;;;;;11.10;4.45;;;;;;;;;;4983369;28;20225;-66
2021/08/11 07:09:22;;;;;;;6.63;3.95;;;;;;;;;;4977707;28;20174;-66
2021/08/11 07:11:48;;;;;;;8.48;4.95;;;;;;;;;;4993749;28;20074;-67
2021/08/11 07:14:15;;;;;;;9.60;4.38;;;;;;;;;;4982339;28;20122;-65
2021/08/11 07:16:45;;;;;;;8.43;4.38;;;;;;;;;;4976275;28;20060;-66
2021/08/11 07:19:13;;;;;;;9.48;4.57;;;;;;;;;;4980775;28;20026;-67
2021/08/11 07:21:39;;;;;;;9.80;4.35;;;;;;;;;;4977999;28;20049;-65
2021/08/11 07:24:09;;;;;;;8.75;4.35;;;;;;;;;;4992802;28;20043;-65
2021/08/11 07:26:35;;;;;;;10.13;4.43;;;;;;;;;;4982072;28;20278;-65
2021/08/11 07:29:01;;;;;;;7.25;4.07;;;;;;;;;;4977252;28;20672;-66
2021/08/11 07:31:27;;;;;;;8.90;4.28;;;;;;;;;;4979773;28;20034;-65
2021/08/11 07:33:53;;;;;;;8.27;4.38;;;;;;;;;;4991249;28;20054;-65
2021/08/11 07:36:20;;;;;;;6.80;3.30;;;;;;;;;;4993995;28;20026;-65
2021/08/11 07:38:46;;;;;;;7.75;3.70;;;;;;;;;;4976315;28;20954;-66
2021/08/11 07:41:11;;;;;;;10.73;4.07;;;;;;;;;;4992490;28;20065;-66
2021/08/11 07:43:37;;;;;;;9.80;4.57;;;;;;;;;;4979650;28;22200;-66
2021/08/11 07:46:03;;;;;;;7.68;4.65;;;;;;;;;;4974367;28;20038;-66
2021/08/11 07:48:31;;;;;;;11.05;4.00;;;;;;;;;;4977283;28;20034;-66
2021/08/11 07:50:56;;;;;;;7.95;4.07;;;;;;;;;;4979539;28;20049;-65
2021/08/11 07:53:22;;;;;;;8.15;4.07;;;;;;;;;;4977960;28;20026;-66
2021/08/11 07:55:47;;;;;;;6.22;3.40;;;;;;;;;;4979107;28;20157;-65
2021/08/11 07:58:13;;;;;;;7.20;4.05;;;;;;;;;;4980927;28;20029;-67
2021/08/11 08:00:46;;;;;;;8.70;4.18;;;;;;;;;;4981049;28;20177;-66
2021/08/11 08:03:14;;;;;;;7.40;3.95;;;;;;;;;;4993969;28;20042;-66
2021/08/11 08:05:42;;;;;;;6.88;4.40;;;;;;;;;;4963979;28;20026;-65
2021/08/11 08:08:08;;;;;;;6.68;3.72;;;;;;;;;;4980780;28;20135;-66
2021/08/11 08:10:36;;;;;;;7.72;4.28;;;;;;;;;;4994628;28;20639;-67
2021/08/11 08:13:01;;;;;;;11.13;4.85;;;;;;;;;;4980558;28;20026;-65
2021/08/11 08:15:30;;;;;;;5.88;3.97;;;;;;;;;;4979525;28;20045;-65
2021/08/11 08:17:55;;;;;;;5.65;3.90;;;;;;;;;;4977124;28;21048;-68
2021/08/11 08:20:23;;;;;;;9.07;4.18;;;;;;;;;;4977970;28;20070;-66
2021/08/11 08:22:51;;;;;;;5.78;3.70;;;;;;;;;;4979230;28;20025;-67
2021/08/11 08:25:21;;;;;;;5.88;3.47;;;;;;;;;;4981032;28;20096;-66
2021/08/11 08:27:50;;;;;;;7.47;4.20;;;;;;;;;;4981596;28;20034;-65
2021/08/11 08:30:18;;;;;;;8.63;4.40;;;;;;;;;;4981197;28;20664;-64
2021/08/11 08:32:44;;;;;;;8.25;4.15;;;;;;;;;;4979568;28;20034;-65
2021/08/11 08:35:12;;;;;;;8.63;4.25;;;;;;;;;;5001001;28;20057;-65
2021/08/11 08:37:40;;;;;;;7.75;4.13;;;;;;;;;;5000084;28;20828;-65
2021/08/11 08:40:10;;;;;;;6.50;3.72;;;;;;;;;;4981042;28;20041;-64
2021/08/11 08:42:37;;;;;;;6.95;3.70;;;;;;;;;;4987694;28;20146;-64
2021/08/11 08:45:06;;;;;;;9.35;3.58;;;;;;;;;;5001171;28;20772;-64
2021/08/11 08:47:32;;;;;;;7.18;4.25;;;;;;;;;;4999433;28;20126;-63
2021/08/11 08:50:01;;;;;;;6.22;3.55;;;;;;;;;;5000722;28;20352;-64
2021/08/11 08:52:27;;;;;;;6.72;3.63;;;;;;;;;;4975915;28;20087;-64
2021/08/11 08:54:55;;;;;;;6.35;3.40;;;;;;;;;;4983997;28;20546;-64
2021/08/11 08:57:23;;;;;;;8.43;3.85;;;;;;;;;;4975054;28;20038;-62
2021/08/11 08:59:51;;;;;;;10.75;3.65;;;;;;;;;;4983776;28;20049;-63
2021/08/11 09:02:17;;;;;;;5.30;3.45;;;;;;;;;;5002777;28;20637;-63
2021/08/11 09:04:42;;;;;;;7.70;3.30;;;;;;;;;;4999123;28;20104;-63
2021/08/11 09:07:15;;;;;;;6.63;3.47;;;;;;;;;;4987004;28;20513;-63
2021/08/11 09:09:43;;;;;;;5.18;3.40;;;;;;;;;;4998791;28;20178;-62
2021/08/11 09:12:19;;;;;;;10.25;3.42;;;;;;;;;;4998450;28;20063;-62
2021/08/11 09:14:52;;;;;;;5.03;3.22;;;;;;;;;;4999638;28;20037;-63
2021/08/11 09:17:34;;;;;;;7.18;3.10;;;;;;;;;;5000665;28;20403;-63
2021/08/11 09:20:01;;;;;;;5.95;3.30;;;;;;;;;;5000543;28;20070;-62
2021/08/11 09:22:27;;;;;;;5.03;3.13;;;;;;;;;;4999431;28;20048;-62
2021/08/11 09:25:03;;;;;;;5.47;3.47;;;;;;;;;;4987446;28;20037;-64
2021/08/11 09:27:38;;;;;;;5.97;3.05;;;;;;;;;;5001540;28;20128;-62
2021/08/11 09:30:05;;;;;;;4.85;2.70;;;;;;;;;;4993102;28;20044;-63
2021/08/11 09:32:31;;;;;;;4.05;2.72;;;;;;;;;;4981524;28;20109;-63
2021/08/11 09:35:04;;;;;;;5.10;2.97;;;;;;;;;;5001153;28;20050;-63
2021/08/11 09:37:38;;;;;;;12.10;3.13;;;;;;;;;;4998827;28;20087;-63
2021/08/11 09:40:11;;;;;;;6.85;3.20;;;;;;;;;;5000345;28;20025;-63
2021/08/11 09:42:40;;;;;;;6.68;2.85;;;;;;;;;;4988893;28;20034;-63
2021/08/11 09:45:08;;;;;;;6.97;3.00;;;;;;;;;;4999260;28;20042;-63
2021/08/11 09:47:34;;;;;;;7.68;2.92;;;;;;;;;;4983831;28;21842;-63
2021/08/11 09:50:02;;;;;;;5.18;2.53;;;;;;;;;;4998293;28;20610;-63
2021/08/11 09:52:51;;;;;;;5.45;3.15;;;;;;;;;;4998728;28;20501;-62
2021/08/11 09:55:21;;;;;;;6.78;3.58;;;;;;;;;;4991497;28;20046;-63
2021/08/11 09:57:47;;;;;;;6.18;3.28;;;;;;;;;;4983025;28;20033;-62
2021/08/11 10:00:14;;;;;;;11.73;3.40;;;;;;;;;;5001440;28;20030;-63
2021/08/11 10:02:43;;;;;;;6.10;2.80;;;;;;;;;;4982277;28;20153;-62
2021/08/11 10:05:28;;;;;;;6.35;2.78;;;;;;;;;;4999459;28;21169;-63
2021/08/11 10:07:56;;;;;;;7.25;2.90;;;;;;;;;;4997244;28;20040;-62
2021/08/11 10:10:22;;;;;;;9.13;2.75;;;;;;;;;;4998855;28;20033;-62
2021/08/11 10:12:52;;;;;;;3.15;2.30;;;;;;;;;;4982566;28;20029;-63
2021/08/11 10:15:19;;;;;;;5.15;2.70;;;;;;;;;;4997291;28;20045;-62
2021/08/11 10:17:51;;;;;;;6.03;2.80;;;;;;;;;;5000274;28;20026;-62
2021/08/11 10:20:21;;;;;;;10.10;2.85;;;;;;;;;;4979832;28;20569;-63
2021/08/11 10:22:51;;;;;;;2.97;2.08;;;;;;;;;;4999173;28;20098;-62
2021/08/11 10:25:20;;;;;;;4.75;2.42;;;;;;;;;;4999401;28;20362;-63
2021/08/11 10:27:45;;;;;;;6.63;2.40;;;;;;;;;;4997175;28;20050;-62
2021/08/11 10:30:12;;;;;;;5.20;2.55;;;;;;;;;;4999708;28;20148;-63
2021/08/11 10:32:42;;;;;;;6.82;2.47;;;;;;;;;;4999618;28;20577;-62
2021/08/11 10:35:11;;;;;;;5.50;2.85;;;;;;;;;;4998328;28;20119;-62
2021/08/11 10:37:40;;;;;;;4.88;2.70;;;;;;;;;;4998309;28;20033;-62
2021/08/11 10:40:08;;;;;;;5.93;2.40;;;;;;;;;;5000131;28;20025;-62
2021/08/11 10:42:36;;;;;;;4.40;2.30;;;;;;;;;;4997278;28;20049;-61
2021/08/11 10:45:02;;;;;;;4.68;2.30;;;;;;;;;;4997793;28;20061;-61
2021/08/11 10:47:31;;;;;;;6.20;3.08;;;;;;;;;;4999292;28;20029;-62
2021/08/11 10:50:00;;;;;;;7.18;2.60;;;;;;;;;;4985400;28;20765;-62
2021/08/11 10:52:29;;;;;;;8.23;2.72;;;;;;;;;;4998927;28;20041;-62
2021/08/11 10:54:58;;;;;;;3.97;2.22;;;;;;;;;;4982254;28;20030;-62
2021/08/11 10:57:39;;;;;;;4.43;2.55;;;;;;;;;;4998994;28;20033;-62
2021/08/11 11:00:08;;;;;;;5.07;2.30;;;;;;;;;;4999813;28;20030;-62
2021/08/11 11:02:42;;;;;;;5.28;2.33;;;;;;;;;;4997532;28;20033;-62
2021/08/11 11:05:20;;;;;;;4.22;2.15;;;;;;;;;;4979624;28;20045;-61
2021/08/11 11:08:04;;;;;;;4.15;2.15;;;;;;;;;;4977574;28;20053;-61
2021/08/11 11:10:35;;;;;;;3.55;2.08;;;;;;;;;;4994493;28;20041;-63
2021/08/11 11:13:22;;;;;;;5.40;2.00;;;;;;;;;;4981839;28;21825;-63
2021/08/11 11:15:50;;;;;;;4.00;1.60;;;;;;;;;;4978112;28;20094;-63
2021/08/11 11:18:23;;;;;;;3.47;2.13;;;;;;;;;;4985794;28;20507;-63
2021/08/11 11:20:55;;;;;;;4.20;2.30;;;;;;;;;;4984904;28;20045;-63
2021/08/11 11:23:35;;;;;;;4.88;2.22;;;;;;;;;;4997694;28;20094;-63
2021/08/11 11:26:10;;;;;;;4.57;2.08;;;;;;;;;;4979657;28;20041;-63
2021/08/11 11:29:04;;;;;;;4.53;1.77;;;;;;;;;;4996372;28;20107;-62
2021/08/11 11:31:47;;;;;;;4.18;2.10;;;;;;;;;;4968764;28;20297;-62
2021/08/11 11:34:35;;;;;;;5.50;2.50;;;;;;;;;;4995678;28;20089;-62
2021/08/11 11:37:02;;;;;;;5.70;2.50;;;;;;;;;;4996858;28;20614;-63
2021/08/11 11:39:35;;;;;;;6.03;1.92;;;;;;;;;;4994810;28;20062;-63
2021/08/11 11:42:07;;;;;;;6.70;2.10;;;;;;;;;;4997812;28;20057;-63
2021/08/11 11:44:41;;;;;;;3.63;1.85;;;;;;;;;;4996934;28;20487;-63
2021/08/11 11:47:08;;;;;;;5.88;2.17;;;;;;;;;;4981336;28;20038;-63
2021/08/11 11:49:39;;;;;;;3.63;2.33;;;;;;;;;;4998703;28;20034;-62
2021/08/11 11:52:12;;;;;;;2.45;1.80;;;;;;;;;;4997989;28;20033;-63
2021/08/11 11:54:41;;;;;;;5.55;1.92;;;;;;;;;;4998146;28;20037;-63
2021/08/11 11:57:07;;;;;;;3.58;1.60;;;;;;;;;;4995956;28;20041;-63
2021/08/11 11:59:33;;;;;;;7.18;1.63;;;;;;;;;;4998847;28;20092;-63
2021/08/11 12:02:04;;;;;;;4.38;2.03;;;;;;;;;;4997486;28;20032;-62
2021/08/11 12:04:29;;;;;;;4.80;1.88;;;;;;;;;;4996708;28;20046;-63
2021/08/11 12:06:59;;;;;;;4.43;2.00;;;;;;;;;;4998511;28;20033;-63
2021/08/11 12:09:24;;;;;;;4.85;1.83;;;;;;;;;;4995498;28;20742;-62
2021/08/11 12:15:28;;;;;;;9.00;2.35;;;;;;;;;;4996713;28;20248;-62
2021/08/11 12:17:59;;;;;;;4.10;2.00;;;;;;;;;;4999533;28;20502;-63
2021/08/11 12:20:27;;;;;;;5.03;2.40;;;;;;;;;;4997459;28;20162;-63
2021/08/11 12:22:57;;;;;;;6.45;2.30;;;;;;;;;;4997924;28;20045;-63
2021/08/11 12:25:23;;;;;;;5.35;2.03;;;;;;;;;;4997025;28;20670;-63
2021/08/11 12:28:05;;;;;;;7.07;3.15;;;;;;;;;;4997248;28;20299;-62
2021/08/11 12:30:32;;;;;;;3.25;2.00;;;;;;;;;;4999404;28;20089;-63
2021/08/11 12:32:58;;;;;;;6.57;1.75;;;;;;;;;;4996372;28;22025;-65
2021/08/11 12:35:24;;;;;;;3.47;2.00;;;;;;;;;;4996121;28;20025;-63
2021/08/11 12:37:49;;;;;;;3.25;2.40;;;;;;;;;;4969353;28;21136;-63
2021/08/11 12:40:32;;;;;;;6.10;2.00;;;;;;;;;;4985721;28;20030;-63
2021/08/11 12:43:00;;;;;;;4.53;2.03;;;;;;;;;;4999071;28;20108;-63
2021/08/11 12:45:26;;;;;;;3.55;1.90;;;;;;;;;;4984340;28;20034;-62
2021/08/11 12:47:56;;;;;;;2.42;1.67;;;;;;;;;;4999414;28;20021;-63
2021/08/11 12:50:22;;;;;;;3.22;1.80;;;;;;;;;;4989648;28;20038;-62
2021/08/11 12:52:54;;;;;;;3.58;2.22;;;;;;;;;;4999695;28;20026;-63
2021/08/11 12:55:32;;;;;;;6.05;2.35;;;;;;;;;;4982318;28;20034;-64
2021/08/11 12:58:02;;;;;;;3.28;1.98;;;;;;;;;;5001802;28;20037;-63
2021/08/11 13:00:40;;;;;;;2.47;1.25;;;;;;;;;;4986713;28;20568;-63
2021/08/11 13:03:12;;;;;;;3.80;1.70;;;;;;;;;;5001699;28;21287;-63
2021/08/11 13:05:50;;;;;;;6.05;1.70;;;;;;;;;;5000218;28;20061;-63
2021/08/11 13:08:21;;;;;;;1.48;1.38;;;;;;;;;;4999610;28;20626;-63
2021/08/11 13:10:56;;;;;;;3.28;1.77;;;;;;;;;;5000074;28;20152;-63
2021/08/11 13:13:29;;;;;;;4.47;1.40;;;;;;;;;;5000359;28;20033;-64
2021/08/11 13:16:10;;;;;;;2.10;1.50;;;;;;;;;;5000454;28;20036;-63
2021/08/11 13:18:39;;;;;;;3.70;1.70;;;;;;;;;;4998720;28;20029;-64
2021/08/11 13:21:04;;;;;;;5.25;2.00;;;;;;;;;;4983902;28;22046;-64
2021/08/11 13:23:32;;;;;;;3.42;1.80;;;;;;;;;;4999526;28;20045;-64
2021/08/11 13:25:58;;;;;;;6.93;1.88;;;;;;;;;;4980738;28;20116;-63
2021/08/11 13:28:23;;;;;;;4.13;2.25;;;;;;;;;;4988068;28;20133;-63
2021/08/11 13:30:51;;;;;;;3.90;1.67;;;;;;;;;;4984832;28;20057;-64
2021/08/11 13:33:18;;;;;;;5.10;1.80;;;;;;;;;;4996678;28;20181;-63
2021/08/11 13:35:43;;;;;;;3.35;1.83;;;;;;;;;;4981803;28;20083;-64
2021/08/11 13:38:12;;;;;;;5.63;2.08;;;;;;;;;;4996864;28;20037;-64
2021/08/11 13:40:37;;;;;;;3.20;1.63;;;;;;;;;;4979406;28;20042;-64
2021/08/11 13:43:03;;;;;;;3.67;1.40;;;;;;;;;;4999203;28;20096;-64
2021/08/11 13:45:31;;;;;;;3.25;1.23;;;;;;;;;;4997695;28;20037;-64
2021/08/11 13:47:57;;;;;;;1.85;1.05;;;;;;;;;;4971070;28;20044;-65
2021/08/11 13:50:25;;;;;;;4.50;1.52;;;;;;;;;;4997265;28;20030;-65
2021/08/11 13:52:57;;;;;;;2.78;1.60;;;;;;;;;;4997062;28;20044;-65
2021/08/11 13:55:23;;;;;;;3.25;1.20;;;;;;;;;;4998334;28;22046;-64
2021/08/11 13:57:49;;;;;;;3.95;0.90;;;;;;;;;;4982735;28;20038;-64
2021/08/11 14:00:17;;;;;;;3.80;1.25;;;;;;;;;;4999164;28;20056;-64
2021/08/11 14:02:47;;;;;;;3.88;1.50;;;;;;;;;;4996665;28;20068;-64
2021/08/11 14:05:12;;;;;;;2.85;1.45;;;;;;;;;;4998301;28;20038;-65
2021/08/11 14:07:38;;;;;;;2.88;0.80;;;;;;;;;;4978933;28;20213;-64
2021/08/11 14:10:04;;;;;;;5.38;1.40;;;;;;;;;;4997656;28;20040;-64
2021/08/11 14:12:30;;;;;;;1.25;0.95;;;;;;;;;;4992684;28;20041;-62
2021/08/11 14:14:57;;;;;;;1.60;1.10;;;;;;;;;;4993012;28;20029;-63
2021/08/11 14:17:25;;;;;;;2.38;1.65;;;;;;;;;;4979913;28;20338;-62
2021/08/11 14:19:53;;;;;;;3.28;1.60;;;;;;;;;;4998916;28;20037;-63
2021/08/11 14:22:21;;;;;;;1.92;1.30;;;;;;;;;;4995450;28;21440;-63
2021/08/11 14:24:49;;;;;;;1.90;1.17;;;;;;;;;;4999118;28;20152;-63
2021/08/11 14:27:17;;;;;;;2.28;1.40;;;;;;;;;;4980009;28;20552;-62
2021/08/11 14:29:43;;;;;;;4.80;1.40;;;;;;;;;;4976697;28;20630;-62
2021/08/11 14:32:09;;;;;;;4.32;1.50;;;;;;;;;;4997394;28;20172;-62
2021/08/11 14:34:37;;;;;;;4.28;1.58;;;;;;;;;;4997551;28;20103;-62
2021/08/11 14:37:03;;;;;;;3.33;1.33;;;;;;;;;;4982050;28;20029;-63
2021/08/11 14:39:28;;;;;;;2.67;1.13;;;;;;;;;;4994927;28;20037;-63
2021/08/11 14:41:56;;;;;;;2.58;1.33;;;;;;;;;;4996856;28;20043;-64
2021/08/11 14:44:23;;;;;;;3.40;1.30;;;;;;;;;;4999294;28;20045;-63
2021/08/11 14:46:48;;;;;;;2.88;1.30;;;;;;;;;;4996611;28;20119;-63
2021/08/11 14:49:13;;;;;;;6.15;1.40;;;;;;;;;;4982250;28;20761;-62
2021/08/11 14:51:41;;;;;;;9.60;1.80;;;;;;;;;;4964916;28;20669;-62